createdAt,value
2022-08-22T00:01:43.787Z,98345.47
2022-08-22T00:02:42.952Z,98325.84
2022-08-22T00:03:07.584Z,98325.44
2022-08-22T00:03:10.286Z,98338.56
2022-08-22T00:04:41.622Z,98345.19
2022-08-22T00:07:29.747Z,98339.81
2022-08-22T00:10:11.471Z,98345.81
2022-08-22T00:13:05.831Z,98342.22
2022-08-22T00:15:43.013Z,98341.25
2022-08-22T00:18:16.063Z,98340.34
2022-08-22T00:20:52.775Z,98341.16
2022-08-22T00:23:25.026Z,98354.38
2022-08-22T00:25:59.104Z,98350.94
2022-08-22T00:28:34.565Z,98346.91
2022-08-22T00:31:16.093Z,98348.03
2022-08-22T00:34:20.434Z,98349.56
2022-08-22T00:37:07.947Z,98351.56
2022-08-22T00:39:43.672Z,98348.13
2022-08-22T00:42:51.289Z,98349.63
2022-08-22T00:45:29.654Z,98349.09
2022-08-22T00:48:17.147Z,98349.06
2022-08-22T00:51:09.905Z,98342.44
2022-08-22T00:53:58.297Z,98336.91
2022-08-22T00:56:36.421Z,98345.97
2022-08-22T00:59:30.930Z,98340.03
2022-08-22T01:02:27.328Z,98337.72
2022-08-22T01:05:08.580Z,98330.84
2022-08-22T01:08:15.290Z,98331.44
2022-08-22T01:11:14.082Z,98330.53
2022-08-22T01:13:46.532Z,98329.91
2022-08-22T01:16:34.454Z,98326.69
2022-08-22T01:19:19.785Z,98325.25
2022-08-22T01:22:08.041Z,98320.50
2022-08-22T01:25:18.301Z,98321.22
2022-08-22T01:28:05.758Z,98313.78
2022-08-22T01:31:10.038Z,98309.44
2022-08-22T01:33:58.297Z,98302.75
2022-08-22T01:36:47.604Z,98306.19
2022-08-22T01:39:23.036Z,98311.25
2022-08-22T01:42:03.564Z,98307.03
2022-08-22T01:44:36.124Z,98302.50
2022-08-22T01:47:40.125Z,98307.28
2022-08-22T01:50:29.631Z,98304.91
2022-08-22T01:53:11.310Z,98299.34
2022-08-22T01:55:56.565Z,98296.63
2022-08-22T01:58:29.871Z,98299.88
2022-08-22T02:01:14.796Z,98298.16
2022-08-22T02:04:11.915Z,98289.59
2022-08-22T02:07:02.700Z,98301.09
2022-08-22T02:10:06.677Z,98309.03
2022-08-22T02:12:42.185Z,98308.22
2022-08-22T02:15:14.277Z,98307.56
2022-08-22T02:17:49.665Z,98306.97
2022-08-22T02:20:28.757Z,98303.09
2022-08-22T02:23:07.326Z,98297.47
2022-08-22T02:25:49.117Z,98290.00
2022-08-22T02:28:30.517Z,98292.91
2022-08-22T02:31:02.535Z,98293.34
2022-08-22T02:33:38.510Z,98289.91
2022-08-22T02:36:22.543Z,98284.38
2022-08-22T02:38:55.457Z,98287.00
2022-08-22T02:41:43.863Z,98288.22
2022-08-22T02:44:22.629Z,98274.28
2022-08-22T02:47:15.233Z,98272.97
2022-08-22T02:50:05.136Z,98274.59
2022-08-22T02:52:55.919Z,98269.75
2022-08-22T02:56:08.824Z,98271.78
2022-08-22T02:58:47.350Z,98281.34
2022-08-22T03:01:27.850Z,98278.72
2022-08-22T03:04:22.573Z,98282.69
2022-08-22T03:07:18.157Z,98286.00
2022-08-22T03:09:57.057Z,98278.13
2022-08-22T03:12:32.527Z,98279.34
2022-08-22T03:15:10.077Z,98292.19
2022-08-22T03:17:49.411Z,98296.81
2022-08-22T03:20:40.362Z,98298.94
2022-08-22T03:23:13.415Z,98288.63
2022-08-22T03:25:48.653Z,98294.44
2022-08-22T03:28:22.560Z,98288.81
2022-08-22T03:31:08.699Z,98287.28
2022-08-22T03:33:35.366Z,98287.13
2022-08-22T03:36:13.777Z,98293.56
2022-08-22T03:38:52.073Z,98297.16
2022-08-22T03:41:54.761Z,98293.91
2022-08-22T03:44:27.217Z,98302.66
2022-08-22T03:47:12.078Z,98299.59
2022-08-22T03:50:03.478Z,98297.94
2022-08-22T03:53:18.405Z,98291.31
2022-08-22T03:55:52.255Z,98297.94
2022-08-22T03:58:36.854Z,98302.31
2022-08-22T04:01:12.784Z,98296.94
2022-08-22T04:03:56.043Z,98298.00
2022-08-22T04:06:33.337Z,98295.28
2022-08-22T04:09:40.296Z,98299.66
2022-08-22T04:12:15.837Z,98291.91
2022-08-22T04:14:58.014Z,98300.25
2022-08-22T04:17:55.557Z,98307.34
2022-08-22T04:20:52.144Z,98307.47
2022-08-22T04:23:55.666Z,98302.19
2022-08-22T04:26:42.267Z,98310.06
2022-08-22T04:29:35.630Z,98315.19
2022-08-22T04:32:14.516Z,98317.75
2022-08-22T04:34:57.485Z,98314.53
2022-08-22T04:37:34.029Z,98321.00
2022-08-22T04:40:09.058Z,98323.66
2022-08-22T04:42:42.163Z,98319.81
2022-08-22T04:45:08.556Z,98326.34
2022-08-22T04:48:01.471Z,98316.81
2022-08-22T04:50:35.081Z,98320.88
2022-08-22T04:53:04.587Z,98321.75
2022-08-22T04:56:08.737Z,98318.66
2022-08-22T04:58:56.163Z,98316.06
2022-08-22T05:01:39.126Z,98306.16
2022-08-22T05:04:10.832Z,98315.38
2022-08-22T05:06:41.352Z,98313.41
2022-08-22T05:09:16.004Z,98316.66
2022-08-22T05:11:46.386Z,98318.38
2022-08-22T05:14:20.784Z,98324.59
2022-08-22T05:16:51.962Z,98328.31
2022-08-22T05:19:31.666Z,98329.72
2022-08-22T05:21:59.805Z,98333.53
2022-08-22T05:24:38.564Z,98329.88
2022-08-22T05:27:18.105Z,98329.53
2022-08-22T05:29:49.146Z,98336.69
2022-08-22T05:32:27.478Z,98335.75
2022-08-22T05:35:03.043Z,98333.31
2022-08-22T05:37:43.954Z,98327.75
2022-08-22T05:40:20.273Z,98330.06
2022-08-22T05:42:47.252Z,98335.31
2022-08-22T05:45:16.817Z,98337.94
2022-08-22T05:47:48.196Z,98340.66
2022-08-22T05:50:28.313Z,98343.00
2022-08-22T05:53:10.715Z,98353.88
2022-08-22T05:55:56.778Z,98349.09
2022-08-22T05:58:49.463Z,98353.84
2022-08-22T06:01:37.942Z,98359.13
2022-08-22T06:04:13.658Z,98357.63
2022-08-22T06:07:00.413Z,98358.84
2022-08-22T06:09:47.803Z,98357.47
2022-08-22T06:12:22.006Z,98365.78
2022-08-22T06:15:29.046Z,98361.41
2022-08-22T06:18:05.098Z,98368.75
2022-08-22T06:20:34.565Z,98367.25
2022-08-22T06:23:02.680Z,98371.88
2022-08-22T06:25:35.344Z,98381.28
2022-08-22T06:28:07.512Z,98379.69
2022-08-22T06:30:35.653Z,98376.94
2022-08-22T06:33:12.512Z,98372.03
2022-08-22T06:36:05.125Z,98375.63
2022-08-22T06:38:53.753Z,98375.78
2022-08-22T06:41:23.791Z,98381.13
2022-08-22T06:43:52.740Z,98379.19
2022-08-22T06:46:22.880Z,98383.69
2022-08-22T06:48:49.908Z,98388.47
2022-08-22T06:51:18.880Z,98377.22
2022-08-22T06:53:49.209Z,98381.72
2022-08-22T06:56:23.233Z,98381.78
2022-08-22T06:58:52.845Z,98379.19
2022-08-22T07:01:25.980Z,98382.41
2022-08-22T07:04:09.301Z,98388.69
2022-08-22T07:06:46.294Z,98383.63
2022-08-22T07:09:40.842Z,98378.75
2022-08-22T07:12:16.562Z,98390.06
2022-08-22T07:14:46.965Z,98381.81
2022-08-22T07:17:21.650Z,98390.66
2022-08-22T07:19:57.198Z,98387.34
2022-08-22T07:22:28.750Z,98377.84
2022-08-22T07:25:00.202Z,98376.44
2022-08-22T07:27:54.923Z,98371.66
2022-08-22T07:30:26.588Z,98377.16
2022-08-22T07:33:26.661Z,98372.94
2022-08-22T07:35:59.907Z,98367.81
2022-08-22T07:38:43.092Z,98363.13
2022-08-22T07:41:21.139Z,98363.69
2022-08-22T07:44:16.319Z,98355.44
2022-08-22T07:47:09.283Z,98359.72
2022-08-22T07:49:54.149Z,98355.88
2022-08-22T07:52:22.961Z,98356.09
2022-08-22T07:55:18.617Z,98362.16
2022-08-22T07:57:52.822Z,98368.25
2022-08-22T08:00:21.590Z,98360.16
2022-08-22T08:02:53.273Z,98354.91
2022-08-22T08:05:24.619Z,98355.06
2022-08-22T08:07:55.000Z,98364.41
2022-08-22T08:10:32.641Z,98356.31
2022-08-22T08:13:04.990Z,98364.63
2022-08-22T08:15:35.609Z,98360.66
2022-08-22T08:18:06.262Z,98361.06
2022-08-22T08:20:36.133Z,98352.84
2022-08-22T08:23:06.761Z,98365.31
2022-08-22T08:25:48.775Z,98361.50
2022-08-22T08:28:36.075Z,98352.75
2022-08-22T08:31:08.530Z,98350.56
2022-08-22T08:33:37.205Z,98351.44
2022-08-22T08:36:37.622Z,98352.38
2022-08-22T08:39:16.962Z,98347.53
2022-08-22T08:42:07.587Z,98351.06
2022-08-22T08:44:58.502Z,98345.56
2022-08-22T08:47:46.545Z,98354.75
2022-08-22T08:50:34.649Z,98346.69
2022-08-22T08:53:17.005Z,98341.41
2022-08-22T08:56:03.337Z,98347.09
2022-08-22T08:58:51.026Z,98344.31
2022-08-22T09:01:27.511Z,98336.28
2022-08-22T09:04:03.017Z,98344.34
2022-08-22T09:06:52.739Z,98338.75
2022-08-22T09:09:45.323Z,98338.00
2022-08-22T09:13:00.246Z,98339.72
2022-08-22T09:16:02.273Z,98336.97
2022-08-22T09:18:34.479Z,98334.72
2022-08-22T09:21:30.751Z,98330.03
2022-08-22T09:24:16.324Z,98335.50
2022-08-22T09:26:48.398Z,98332.53
2022-08-22T09:29:33.646Z,98333.69
2022-08-22T09:32:19.139Z,98333.47
2022-08-22T09:34:59.567Z,98328.97
2022-08-22T09:37:48.369Z,98328.69
2022-08-22T09:40:29.137Z,98335.25
2022-08-22T09:43:19.829Z,98329.56
2022-08-22T09:45:51.165Z,98330.41
2022-08-22T09:48:21.269Z,98335.31
2022-08-22T09:51:28.291Z,98325.75
2022-08-22T09:54:18.753Z,98326.56
2022-08-22T09:56:45.426Z,98329.69
2022-08-22T09:59:22.803Z,98320.50
2022-08-22T10:02:17.645Z,98324.47
2022-08-22T10:05:41.339Z,98325.66
2022-08-22T10:08:13.005Z,98316.47
2022-08-22T10:11:03.799Z,98311.56
2022-08-22T10:13:52.862Z,98320.25
2022-08-22T10:16:34.086Z,98318.69
2022-08-22T10:19:06.548Z,98314.25
2022-08-22T10:21:39.407Z,98319.50
2022-08-22T10:24:25.759Z,98317.41
2022-08-22T10:27:01.801Z,98319.53
2022-08-22T10:30:06.424Z,98318.03
2022-08-22T10:32:38.641Z,98316.78
2022-08-22T10:35:20.633Z,98317.56
2022-08-22T10:37:56.590Z,98318.06
2022-08-22T10:40:36.869Z,98321.34
2022-08-22T10:43:19.318Z,98314.09
2022-08-22T10:45:50.626Z,98300.28
2022-08-22T10:48:30.476Z,98302.41
2022-08-22T10:51:08.690Z,98297.66
2022-08-22T10:54:04.898Z,98282.78
2022-08-22T10:56:49.963Z,98290.22
2022-08-22T10:59:22.866Z,98296.06
2022-08-22T11:02:00.451Z,98289.13
2022-08-22T11:05:13.822Z,98287.94
2022-08-22T11:07:53.395Z,98283.56
2022-08-22T11:10:29.702Z,98286.94
2022-08-22T11:13:06.982Z,98284.03
2022-08-22T11:16:11.478Z,98284.53
2022-08-22T11:19:02.461Z,98270.81
2022-08-22T11:21:35.828Z,98270.03
2022-08-22T11:24:34.570Z,98271.50
2022-08-22T11:27:12.963Z,98258.31
2022-08-22T11:30:02.220Z,98248.13
2022-08-22T11:32:39.575Z,98257.50
2022-08-22T11:35:18.163Z,98253.03
2022-08-22T11:37:47.901Z,98261.63
2022-08-22T11:40:53.788Z,98257.50
2022-08-22T11:43:46.214Z,98244.47
2022-08-22T11:46:19.965Z,98254.81
2022-08-22T11:48:55.793Z,98253.44
2022-08-22T11:51:46.753Z,98245.81
2022-08-22T11:54:31.103Z,98234.59
2022-08-22T11:57:16.246Z,98242.09
2022-08-22T11:59:43.219Z,98230.00
2022-08-22T12:02:35.877Z,98230.16
2022-08-22T12:05:39.871Z,98225.91
2022-08-22T12:08:16.181Z,98220.56
2022-08-22T12:10:52.738Z,98222.84
2022-08-22T12:14:11.089Z,98228.66
2022-08-22T12:16:37.600Z,98221.19
2022-08-22T12:19:32.797Z,98224.13
2022-08-22T12:22:17.848Z,98224.34
2022-08-22T12:25:05.379Z,98227.31
2022-08-22T12:27:48.168Z,98216.34
2022-08-22T12:30:45.242Z,98220.38
2022-08-22T12:33:41.720Z,98221.34
2022-08-22T12:36:32.759Z,98217.84
2022-08-22T12:39:16.901Z,98213.16
2022-08-22T12:42:04.063Z,98210.50
2022-08-22T12:44:36.593Z,98210.19
2022-08-22T12:47:23.573Z,98206.56
2022-08-22T12:50:02.133Z,98204.09
2022-08-22T12:52:50.778Z,98199.16
2022-08-22T12:55:45.281Z,98190.09
2022-08-22T12:58:45.079Z,98192.50
2022-08-22T13:01:18.707Z,98189.56
2022-08-22T13:03:50.975Z,98189.63
2022-08-22T13:06:35.884Z,98187.25
2022-08-22T13:09:13.898Z,98180.78
2022-08-22T13:11:43.058Z,98177.31
2022-08-22T13:14:18.245Z,98174.56
2022-08-22T13:16:51.215Z,98173.41
2022-08-22T13:19:25.457Z,98177.31
2022-08-22T13:22:20.071Z,98175.72
2022-08-22T13:25:00.252Z,98171.84
2022-08-22T13:27:35.033Z,98173.66
2022-08-22T13:30:27.348Z,98166.47
2022-08-22T13:33:08.562Z,98175.06
2022-08-22T13:35:54.085Z,98171.97
2022-08-22T13:38:26.507Z,98169.97
2022-08-22T13:40:56.659Z,98163.09
2022-08-22T13:43:29.671Z,98168.28
2022-08-22T13:46:01.956Z,98173.34
2022-08-22T13:48:50.782Z,98167.16
2022-08-22T13:51:28.850Z,98161.00
2022-08-22T13:54:10.823Z,98160.72
2022-08-22T13:57:02.454Z,98151.72
2022-08-22T13:59:59.583Z,98147.78
2022-08-22T14:02:53.348Z,98143.75
2022-08-22T14:05:33.978Z,98143.41
2022-08-22T14:08:14.470Z,98136.25
2022-08-22T14:10:47.309Z,98136.47
2022-08-22T14:13:31.192Z,98137.34
2022-08-22T14:16:03.197Z,98135.25
2022-08-22T14:18:45.428Z,98141.47
2022-08-22T14:21:40.267Z,98140.94
2022-08-22T14:24:19.013Z,98128.69
2022-08-22T14:27:05.554Z,98138.41
2022-08-22T14:29:42.151Z,98137.50
2022-08-22T14:32:35.339Z,98133.03
2022-08-22T14:35:23.561Z,98127.66
2022-08-22T14:38:17.120Z,98120.25
2022-08-22T14:40:44.897Z,98125.28
2022-08-22T14:43:31.283Z,98120.03
2022-08-22T14:46:31.830Z,98112.19
2022-08-22T14:49:07.310Z,98113.13
2022-08-22T14:51:37.962Z,98131.88
2022-08-22T14:54:21.463Z,98122.81
2022-08-22T14:56:50.658Z,98115.69
2022-08-22T14:59:32.569Z,98115.00
2022-08-22T15:02:05.891Z,98113.81
2022-08-22T15:04:48.208Z,98112.28
2022-08-22T15:07:26.461Z,98114.13
2022-08-22T15:09:58.357Z,98109.41
2022-08-22T15:12:33.112Z,98109.22
2022-08-22T15:15:04.093Z,98109.44
2022-08-22T15:17:46.020Z,98104.97
2022-08-22T15:20:31.333Z,98096.31
2022-08-22T15:23:09.887Z,98099.34
2022-08-22T15:25:41.144Z,98098.66
2022-08-22T15:28:20.467Z,98098.69
2022-08-22T15:30:59.981Z,98095.41
2022-08-22T15:33:33.190Z,98096.19
2022-08-22T15:36:20.130Z,98092.09
2022-08-22T15:38:55.601Z,98102.53
2022-08-22T15:41:22.879Z,98091.16
2022-08-22T15:44:00.799Z,98098.25
2022-08-22T15:46:43.582Z,98101.19
2022-08-22T15:49:22.445Z,98103.94
2022-08-22T15:52:07.447Z,98088.66
2022-08-22T15:54:46.854Z,98094.53
2022-08-22T15:57:41.686Z,98096.19
2022-08-22T16:00:28.036Z,98086.94
2022-08-22T16:02:56.905Z,98097.16
2022-08-22T16:05:36.967Z,98101.84
2022-08-22T16:08:11.078Z,98095.72
2022-08-22T16:10:39.924Z,98098.75
2022-08-22T16:13:15.003Z,98097.19
2022-08-22T16:15:50.336Z,98093.97
2022-08-22T16:18:33.272Z,98093.81
2022-08-22T16:21:10.670Z,98085.66
2022-08-22T16:23:46.342Z,98089.63
2022-08-22T16:26:15.525Z,98090.50
2022-08-22T16:29:18.053Z,98082.84
2022-08-22T16:31:44.724Z,98083.03
2022-08-22T16:34:17.086Z,98088.44
2022-08-22T16:36:52.557Z,98085.91
2022-08-22T16:39:22.091Z,98084.53
2022-08-22T16:41:56.288Z,98079.72
2022-08-22T16:44:57.183Z,98082.03
2022-08-22T16:47:42.656Z,98079.97
2022-08-22T16:50:18.470Z,98087.97
2022-08-22T16:52:57.913Z,98086.91
2022-08-22T16:55:30.295Z,98086.56
2022-08-22T16:58:15.676Z,98093.84
2022-08-22T17:00:57.888Z,98090.72
2022-08-22T17:03:35.166Z,98092.00
2022-08-22T17:06:23.969Z,98084.59
2022-08-22T17:08:58.410Z,98089.66
2022-08-22T17:11:55.957Z,98089.50
2022-08-22T17:14:25.396Z,98086.31
2022-08-22T17:17:18.590Z,98093.91
2022-08-22T17:19:55.004Z,98098.56
2022-08-22T17:22:44.603Z,98097.47
2022-08-22T17:25:37.614Z,98094.84
2022-08-22T17:28:11.257Z,98096.38
2022-08-22T17:30:46.435Z,98105.81
2022-08-22T17:33:33.691Z,98100.66
2022-08-22T17:36:28.344Z,98104.25
2022-08-22T17:39:17.130Z,98106.16
2022-08-22T17:42:20.936Z,98109.81
2022-08-22T17:45:32.696Z,98108.78
2022-08-22T17:48:26.162Z,98111.91
2022-08-22T17:51:03.055Z,98120.25
2022-08-22T17:53:29.710Z,98124.53
2022-08-22T17:56:24.569Z,98127.09
2022-08-22T17:59:11.658Z,98135.31
2022-08-22T18:01:56.084Z,98136.66
2022-08-22T18:04:57.546Z,98138.69
2022-08-22T18:07:40.204Z,98133.44
2022-08-22T18:10:21.314Z,98138.91
2022-08-22T18:12:57.271Z,98144.59
2022-08-22T18:15:55.203Z,98144.59
2022-08-22T18:18:47.930Z,98149.25
2022-08-22T18:21:35.909Z,98158.78
2022-08-22T18:24:20.301Z,98163.84
2022-08-22T18:27:35.785Z,98170.41
2022-08-22T18:30:11.142Z,98166.50
2022-08-22T18:32:52.849Z,98171.84
2022-08-22T18:35:49.983Z,98166.94
2022-08-22T18:38:32.022Z,98172.25
2022-08-22T18:41:04.369Z,98183.03
2022-08-22T18:43:40.573Z,98184.16
2022-08-22T18:46:32.541Z,98181.56
2022-08-22T18:49:15.385Z,98190.81
2022-08-22T18:51:43.821Z,98193.63
2022-08-22T18:54:24.533Z,98194.69
2022-08-22T18:56:58.213Z,98195.03
2022-08-22T18:59:59.158Z,98193.94
2022-08-22T19:03:03.563Z,98197.72
2022-08-22T19:05:52.898Z,98203.75
2022-08-22T19:08:57.937Z,98211.94
2022-08-22T19:11:50.361Z,98203.88
2022-08-22T19:14:35.653Z,98207.22
2022-08-22T19:17:23.782Z,98197.97
2022-08-22T19:20:17.971Z,98203.84
2022-08-22T19:22:45.262Z,98203.63
2022-08-22T19:25:26.945Z,98211.06
2022-08-22T19:28:09.419Z,98214.75
2022-08-22T19:30:51.023Z,98214.06
2022-08-22T19:33:19.618Z,98223.66
2022-08-22T19:35:54.070Z,98219.53
2022-08-22T19:38:57.903Z,98213.75
2022-08-22T19:41:44.084Z,98210.88
2022-08-22T19:44:31.449Z,98221.19
2022-08-22T19:47:36.360Z,98225.63
2022-08-22T19:50:08.828Z,98227.34
2022-08-22T19:52:47.042Z,98223.31
2022-08-22T19:55:31.991Z,98224.59
2022-08-22T19:58:32.030Z,98225.97
2022-08-22T20:01:08.535Z,98224.94
2022-08-22T20:04:22.836Z,98220.81
2022-08-22T20:06:52.037Z,98225.13
2022-08-22T20:09:44.842Z,98224.97
2022-08-22T20:12:17.952Z,98227.97
2022-08-22T20:14:47.354Z,98226.94
2022-08-22T20:17:34.019Z,98229.00
2022-08-22T20:20:30.451Z,98239.50
2022-08-22T20:23:03.235Z,98239.66
2022-08-22T20:25:44.215Z,98244.78
2022-08-22T20:28:25.938Z,98247.94
2022-08-22T20:30:58.082Z,98247.59
2022-08-22T20:33:32.651Z,98245.25
2022-08-22T20:36:05.269Z,98250.63
2022-08-22T20:38:41.757Z,98242.34
2022-08-22T20:41:33.488Z,98243.16
2022-08-22T20:44:12.400Z,98248.69
2022-08-22T20:46:54.892Z,98245.47
2022-08-22T20:49:28.228Z,98253.91
2022-08-22T20:51:56.822Z,98247.47
2022-08-22T20:54:29.831Z,98248.22
2022-08-22T20:57:02.502Z,98245.78
2022-08-22T20:59:41.649Z,98259.47
2022-08-22T21:02:54.601Z,98242.28
2022-08-22T21:05:25.058Z,98243.31
2022-08-22T21:08:02.402Z,98243.66
2022-08-22T21:10:49.840Z,98249.28
2022-08-22T21:13:19.790Z,98252.63
2022-08-22T21:15:50.612Z,98252.38
2022-08-22T21:18:36.404Z,98246.91
2022-08-22T21:21:16.906Z,98244.34
2022-08-22T21:23:47.475Z,98251.59
2022-08-22T21:26:31.458Z,98248.03
2022-08-22T21:29:02.398Z,98249.97
2022-08-22T21:31:32.781Z,98250.88
2022-08-22T21:34:00.131Z,98252.34
2022-08-22T21:36:30.158Z,98245.94
2022-08-22T21:39:12.546Z,98246.06
2022-08-22T21:41:47.539Z,98251.03
2022-08-22T21:44:36.421Z,98257.50
2022-08-22T21:47:30.462Z,98254.75
2022-08-22T21:50:02.193Z,98260.72
2022-08-22T21:52:31.634Z,98261.53
2022-08-22T21:55:30.211Z,98263.59
2022-08-22T21:58:35.572Z,98258.78
2022-08-22T22:01:24.822Z,98267.28
2022-08-22T22:03:51.698Z,98267.13
2022-08-22T22:06:18.152Z,98269.72
2022-08-22T22:08:44.606Z,98276.16
2022-08-22T22:11:15.118Z,98268.59
2022-08-22T22:13:42.413Z,98273.88
2022-08-22T22:16:12.074Z,98275.13
2022-08-22T22:18:39.632Z,98281.75
2022-08-22T22:21:07.332Z,98285.41
2022-08-22T22:23:33.796Z,98287.72
2022-08-22T22:26:02.727Z,98290.75
2022-08-22T22:28:41.484Z,98288.50
2022-08-22T22:31:09.037Z,98296.34
2022-08-22T22:33:38.080Z,98286.88
2022-08-22T22:36:07.913Z,98293.78
2022-08-22T22:38:34.581Z,98293.84
2022-08-22T22:41:01.096Z,98289.06
2022-08-22T22:43:27.803Z,98298.16
2022-08-22T22:45:54.287Z,98289.63
2022-08-22T22:48:24.660Z,98297.09
2022-08-22T22:50:52.396Z,98300.97
2022-08-22T22:53:20.039Z,98296.00
2022-08-22T22:56:00.495Z,98307.06
2022-08-22T22:58:28.166Z,98299.50
2022-08-22T23:00:55.086Z,98302.69
2022-08-22T23:03:21.685Z,98305.72
2022-08-22T23:05:48.166Z,98308.16
2022-08-22T23:08:14.615Z,98315.22
2022-08-22T23:10:41.092Z,98300.59
2022-08-22T23:13:07.602Z,98307.25
2022-08-22T23:15:34.047Z,98301.34
2022-08-22T23:18:00.752Z,98303.09
2022-08-22T23:20:27.484Z,98306.44
2022-08-22T23:22:53.943Z,98320.88
2022-08-22T23:25:20.472Z,98309.31
2022-08-22T23:27:52.694Z,98310.69
2022-08-22T23:30:20.094Z,98316.81
2022-08-22T23:32:46.605Z,98323.91
2022-08-22T23:35:13.074Z,98327.75
2022-08-22T23:37:39.573Z,98329.91
2022-08-22T23:40:08.526Z,98335.81
2022-08-22T23:42:35.442Z,98336.88
2022-08-22T23:45:02.009Z,98338.72
2022-08-22T23:47:28.487Z,98332.84
2022-08-22T23:49:54.986Z,98335.06
2022-08-22T23:52:21.543Z,98334.25
2022-08-22T23:54:48.106Z,98330.66
2022-08-22T23:57:21.180Z,98332.22
2022-08-22T23:59:57.463Z,98332.41
